Time;durP1;ratioP1;P1;durP2;ratioP2;P2;SDS_P1;SDS_P2;PMS_P1;PMS_P2;Temp;Humidity;BMP_temperature;BMP_pressure;BME280_temperature;BME280_humidity;BME280_pressure;Samples;Min_cycle;Max_cycle;Signal;HPM_P1;HPM_P2
2023/07/12 00:07:21;;;;;;;22.48;11.73;;;19.50;99.90;;;;;;25710619;23;20005;-54
2023/07/12 00:17:23;;;;;;;18.67;11.65;;;19.40;99.90;;;;;;25710041;23;20379;-45
2023/07/12 00:27:24;;;;;;;20.17;11.10;;;19.50;99.90;;;;;;25709973;23;20004;-45
2023/07/12 00:37:26;;;;;;;25.38;10.20;;;19.60;99.90;;;;;;25709710;23;20012;-46
2023/07/12 00:47:30;;;;;;;17.88;11.80;;;19.50;99.90;;;;;;25709240;23;20008;-57
2023/07/12 00:57:32;;;;;;;20.13;11.95;;;19.50;99.90;;;;;;25712272;23;20008;-48
2023/07/12 01:07:34;;;;;;;21.63;12.95;;;19.30;99.90;;;;;;25690410;23;20000;-48
2023/07/12 01:17:37;;;;;;;17.63;12.60;;;19.20;99.90;;;;;;25716621;23;20005;-45
2023/07/12 01:27:38;;;;;;;20.65;12.95;;;19.10;99.90;;;;;;25716100;23;20054;-49
2023/07/12 01:37:43;;;;;;;21.08;15.25;;;19.10;99.90;;;;;;25715903;23;20008;-47
2023/07/12 01:47:44;;;;;;;18.48;14.02;;;19.40;99.90;;;;;;25715165;23;20013;-46
2023/07/12 01:57:46;;;;;;;17.73;12.93;;;19.30;99.90;;;;;;25714890;23;20458;-48
2023/07/12 02:07:48;;;;;;;20.45;12.10;;;19.10;99.90;;;;;;25688084;23;20027;-44
2023/07/12 02:17:50;;;;;;;18.67;14.65;;;18.80;99.90;;;;;;25687798;23;20000;-55
2023/07/12 02:27:52;;;;;;;16.38;10.43;;;18.80;99.90;;;;;;25713873;23;20008;-53
2023/07/12 02:37:55;;;;;;;23.38;10.77;;;18.60;99.90;;;;;;25713746;23;20055;-45
2023/07/12 02:47:56;;;;;;;17.65;11.18;;;18.20;99.90;;;;;;25712736;23;20043;-44
2023/07/12 02:57:58;;;;;;;20.30;13.82;;;17.50;99.90;;;;;;25712112;23;20000;-58
2023/07/12 03:08:00;;;;;;;23.83;16.13;;;17.00;99.90;;;;;;25712335;23;20008;-47
2023/07/12 03:18:02;;;;;;;25.05;15.70;;;16.70;99.90;;;;;;25711933;23;20068;-58
2023/07/12 03:28:04;;;;;;;20.13;12.10;;;16.50;99.90;;;;;;25711432;23;20012;-58
2023/07/12 03:38:05;;;;;;;17.27;9.10;;;16.40;99.90;;;;;;25711577;23;20096;-58
2023/07/12 03:48:07;;;;;;;18.20;10.73;;;16.30;99.90;;;;;;25710656;23;20009;-56
2023/07/12 03:58:13;;;;;;;13.57;9.00;;;16.40;99.90;;;;;;25711512;23;20008;-45
2023/07/12 04:08:15;;;;;;;13.10;8.45;;;16.40;99.90;;;;;;25751932;23;20004;-55
2023/07/12 04:18:16;;;;;;;15.73;8.38;;;16.40;99.90;;;;;;25709984;23;20009;-57
2023/07/12 04:28:18;;;;;;;16.05;7.95;;;16.30;99.90;;;;;;25710600;23;20008;-46
2023/07/12 04:38:20;;;;;;;20.38;8.40;;;16.10;99.90;;;;;;25718224;23;20055;-46
2023/07/12 04:48:22;;;;;;;12.70;7.38;;;16.10;99.90;;;;;;25717434;23;20048;-57
2023/07/12 04:58:24;;;;;;;14.50;7.65;;;16.20;99.90;;;;;;25717103;23;20281;-57
2023/07/12 05:08:25;;;;;;;14.32;6.78;;;16.50;99.90;;;;;;25690325;23;20008;-46
2023/07/12 05:18:27;;;;;;;18.13;7.80;;;16.90;99.90;;;;;;25716844;23;20526;-46
2023/07/12 05:28:29;;;;;;;15.73;7.00;;;17.30;99.90;;;;;;25716310;23;20001;-49
2023/07/12 05:38:30;;;;;;;13.65;5.93;;;17.70;99.90;;;;;;25689445;23;20009;-47
2023/07/12 05:48:32;;;;;;;13.07;5.10;;;18.50;99.90;;;;;;25715669;23;20017;-58
2023/07/12 05:58:35;;;;;;;12.45;5.70;;;19.90;99.90;;;;;;25715323;23;20001;-47
2023/07/12 06:08:37;;;;;;;16.23;6.78;;;20.10;99.90;;;;;;25713548;23;20009;-44
2023/07/12 06:18:38;;;;;;;15.25;6.22;;;19.30;99.90;;;;;;25712189;23;20009;-54
2023/07/12 06:28:40;;;;;;;16.77;4.43;;;18.30;99.90;;;;;;25713715;23;20305;-46
2023/07/12 06:38:42;;;;;;;13.27;6.82;;;17.70;99.90;;;;;;25712808;23;20439;-44
2023/07/12 06:48:45;;;;;;;13.90;8.18;;;17.30;99.90;;;;;;25710659;23;20012;-56
2023/07/12 06:58:47;;;;;;;17.45;7.53;;;17.20;99.90;;;;;;25711690;23;20005;-56
2023/07/12 07:08:49;;;;;;;12.50;6.55;;;17.20;99.90;;;;;;25712448;23;20428;-44
2023/07/12 07:18:51;;;;;;;10.35;6.22;;;17.30;99.90;;;;;;25711932;23;20001;-55
2023/07/12 07:28:53;;;;;;;11.00;5.40;;;17.40;99.90;;;;;;25710477;23;20017;-56
2023/07/12 07:38:54;;;;;;;9.23;5.72;;;17.80;99.90;;;;;;25710448;23;20004;-57
2023/07/12 07:48:56;;;;;;;7.20;3.42;;;17.70;99.90;;;;;;25710451;23;20525;-57
2023/07/12 07:58:59;;;;;;;2.92;0.80;;;17.00;99.90;;;;;;25709133;23;20081;-47
2023/07/12 08:09:01;;;;;;;1.73;0.90;;;17.70;99.90;;;;;;25683823;23;20000;-57
2023/07/12 08:19:04;;;;;;;3.75;1.10;;;18.80;99.90;;;;;;25710299;23;20082;-45
2023/07/12 08:29:05;;;;;;;4.93;1.60;;;18.50;99.90;;;;;;25709846;23;20004;-57
2023/07/12 08:39:07;;;;;;;3.22;1.52;;;18.20;99.90;;;;;;25706598;23;20005;-57
2023/07/12 08:49:13;;;;;;;2.60;1.48;;;18.10;99.90;;;;;;25707621;23;20005;-57
2023/07/12 08:59:16;;;;;;;2.65;1.83;;;18.60;99.90;;;;;;25707495;23;20013;-47
2023/07/12 09:09:18;;;;;;;3.67;1.50;;;19.30;99.90;;;;;;25706985;23;20012;-57
2023/07/12 09:19:27;;;;;;;4.57;1.00;;;19.80;99.90;;;;;;25711743;23;20016;-58
2023/07/12 09:29:33;;;;;;;1.98;0.70;;;22.20;99.90;;;;;;25755807;23;20001;-47
2023/07/12 09:39:35;;;;;;;3.67;1.63;;;24.50;99.90;;;;;;25754445;23;20427;-47
2023/07/12 09:49:44;;;;;;;5.72;2.00;;;26.60;99.90;;;;;;25712637;23;20009;-49
2023/07/12 10:00:00;;;;;;;4.88;1.20;;;27.60;99.90;;;;;;25753732;23;20004;-59
2023/07/12 10:10:08;;;;;;;1.53;1.17;;;27.70;99.30;;;;;;25752379;23;20383;-59
2023/07/12 10:20:19;;;;;;;2.83;1.48;;;27.10;95.50;;;;;;25753784;23;20012;-49
2023/07/12 10:30:24;;;;;;;4.25;1.50;;;27.10;98.60;;;;;;25752978;23;20011;-47
2023/07/12 10:40:50;;;;;;;7.00;1.53;;;27.50;97.50;;;;;;25753137;23;20016;-47
2023/07/12 10:50:56;;;;;;;3.63;1.60;;;27.40;99.10;;;;;;25719156;23;20393;-48
2023/07/12 11:00:59;;;;;;;;;;;28.50;97.50;;;;;;25753263;23;20004;-50
2023/07/12 11:11:20;;;;;;;5.53;1.63;;;29.70;99.10;;;;;;25710997;23;20279;-47
2023/07/12 11:21:46;;;;;;;3.95;1.90;;;29.50;96.90;;;;;;25698185;23;20012;-45
2023/07/12 11:31:59;;;;;;;;;;;29.20;97.50;;;;;;25752065;23;20058;-48
2023/07/12 11:42:08;;;;;;;4.05;1.90;;;28.90;95.90;;;;;;25748518;23;19916;-50
2023/07/12 11:52:15;;;;;;;5.68;2.17;;;28.80;94.30;;;;;;25711590;23;20020;-46
2023/07/12 12:02:22;;;;;;;4.47;3.00;;;28.70;97.50;;;;;;25748993;23;20001;-58
2023/07/12 12:12:31;;;;;;;5.50;3.00;;;29.40;98.00;;;;;;25749554;23;20009;-47
2023/07/12 12:22:33;;;;;;;7.40;3.50;;;29.60;97.40;;;;;;25751204;23;20013;-47
2023/07/12 12:32:38;;;;;;;5.72;3.13;;;29.20;97.30;;;;;;25708423;23;20009;-50
2023/07/12 12:43:01;;;;;;;6.43;3.47;;;29.20;98.40;;;;;;25707710;23;20008;-45
2023/07/12 12:53:05;;;;;;;9.82;4.00;;;29.40;98.70;;;;;;25628558;23;20384;-49
2023/07/12 13:03:06;;;;;;;7.88;4.25;;;29.40;96.90;;;;;;25590380;23;20005;-47
2023/07/12 13:13:16;;;;;;;8.93;3.65;;;28.30;98.90;;;;;;25589895;23;20009;-49
2023/07/12 13:23:17;;;;;;;11.77;4.30;;;28.50;99.90;;;;;;25631605;23;20005;-49
2023/07/12 13:33:20;;;;;;;9.55;5.10;;;29.00;98.60;;;;;;25589813;23;20059;-45
2023/07/12 13:43:22;;;;;;;10.98;4.28;;;28.90;99.10;;;;;;25595409;23;20017;-49
2023/07/12 13:53:23;;;;;;;10.88;4.70;;;29.20;97.70;;;;;;25756181;23;20012;-46
2023/07/12 14:03:25;;;;;;;8.88;4.88;;;29.10;98.00;;;;;;25711985;23;20001;-49
2023/07/12 14:13:27;;;;;;;10.82;5.00;;;29.50;98.10;;;;;;25713003;23;20004;-46
2023/07/12 14:23:29;;;;;;;12.45;5.03;;;28.50;98.30;;;;;;25712965;23;20005;-46
2023/07/12 14:33:36;;;;;;;10.73;4.78;;;27.50;99.90;;;;;;25712441;23;20071;-46
2023/07/12 14:43:38;;;;;;;10.80;4.93;;;26.70;99.60;;;;;;25749815;23;20008;-47
2023/07/12 14:53:40;;;;;;;10.25;4.85;;;25.80;99.90;;;;;;25711475;23;20012;-48
2023/07/12 15:03:42;;;;;;;10.00;4.97;;;25.00;99.90;;;;;;25711057;23;20005;-47
2023/07/12 15:13:45;;;;;;;10.25;4.97;;;24.60;99.90;;;;;;25710086;23;20340;-44
2023/07/12 15:23:47;;;;;;;13.50;5.40;;;24.10;99.90;;;;;;25709662;23;20005;-46
2023/07/12 15:33:51;;;;;;;9.90;5.20;;;23.70;99.90;;;;;;25709694;23;20001;-46
2023/07/12 15:43:55;;;;;;;13.02;5.63;;;23.20;99.90;;;;;;25709200;23;20090;-45
2023/07/12 15:53:56;;;;;;;13.25;5.85;;;23.00;99.90;;;;;;25709484;23;20062;-45
2023/07/12 16:03:58;;;;;;;14.30;5.88;;;22.80;99.90;;;;;;25706372;23;20020;-46
2023/07/12 16:14:11;;;;;;;15.15;5.95;;;22.90;99.90;;;;;;25707416;23;20063;-47
2023/07/12 16:24:16;;;;;;;14.65;5.90;;;22.80;99.90;;;;;;25749772;23;20009;-46
2023/07/12 16:34:21;;;;;;;10.23;5.57;;;22.80;99.90;;;;;;25707060;23;20027;-44
2023/07/12 16:44:25;;;;;;;13.10;6.13;;;22.60;99.90;;;;;;25707839;23;20270;-45
2023/07/12 16:54:29;;;;;;;13.77;5.90;;;22.20;99.90;;;;;;25707887;23;20017;-44
2023/07/12 17:04:31;;;;;;;11.77;6.18;;;21.80;99.90;;;;;;25707194;23;20005;-57
2023/07/12 17:14:32;;;;;;;14.88;6.35;;;21.60;99.90;;;;;;25707276;23;20059;-47
2023/07/12 17:24:34;;;;;;;16.65;6.05;;;21.60;99.90;;;;;;25707165;23;20333;-46
2023/07/12 17:34:36;;;;;;;16.63;6.30;;;21.60;99.90;;;;;;25707250;23;20001;-48
2023/07/12 17:44:37;;;;;;;16.45;6.18;;;21.40;99.90;;;;;;25712786;23;20072;-44
2023/07/12 17:54:39;;;;;;;13.10;5.63;;;21.20;99.90;;;;;;25713620;23;20055;-46
2023/07/12 18:04:41;;;;;;;12.38;6.50;;;20.70;99.90;;;;;;25713629;23;20066;-45
2023/07/12 18:14:43;;;;;;;16.83;7.07;;;20.20;99.90;;;;;;25686826;23;20012;-48
2023/07/12 18:24:46;;;;;;;16.05;6.90;;;19.80;99.90;;;;;;25712804;23;20008;-56
2023/07/12 18:34:54;;;;;;;17.58;7.13;;;19.40;99.90;;;;;;25711279;23;20004;-56
2023/07/12 18:44:56;;;;;;;17.20;7.15;;;19.10;99.90;;;;;;25718959;23;20071;-45
2023/07/12 18:54:57;;;;;;;26.00;7.40;;;18.90;99.90;;;;;;25710766;23;20078;-57
2023/07/12 19:04:59;;;;;;;14.95;6.70;;;18.90;99.90;;;;;;25711575;23;20008;-57
2023/07/12 19:15:01;;;;;;;20.05;7.72;;;18.90;99.90;;;;;;25710231;23;20004;-44
2023/07/12 19:25:04;;;;;;;18.83;8.70;;;18.80;99.90;;;;;;25710402;23;20518;-56
2023/07/12 19:35:18;;;;;;;21.73;9.25;;;18.50;99.90;;;;;;25710122;23;20379;-47
2023/07/12 19:45:22;;;;;;;23.20;9.98;;;18.30;99.90;;;;;;25707507;23;20388;-56
2023/07/12 19:55:27;;;;;;;23.90;10.75;;;18.20;99.90;;;;;;25709071;23;20021;-45
2023/07/12 20:05:28;;;;;;;25.67;11.15;;;18.20;99.90;;;;;;25708572;23;20005;-44
2023/07/12 20:15:30;;;;;;;22.73;9.38;;;18.30;99.90;;;;;;25708845;23;20005;-45
2023/07/12 20:25:32;;;;;;;25.80;9.85;;;18.60;99.90;;;;;;25708396;23;20078;-47
2023/07/12 20:35:34;;;;;;;21.83;8.32;;;18.90;99.90;;;;;;25709867;23;20359;-47
2023/07/12 20:45:36;;;;;;;25.95;8.30;;;19.20;99.90;;;;;;25707351;23;20408;-47
2023/07/12 20:55:37;;;;;;;21.13;8.95;;;19.30;99.90;;;;;;25709601;23;20009;-45
2023/07/12 21:05:39;;;;;;;21.10;8.25;;;19.40;99.90;;;;;;25709577;23;20075;-44
2023/07/12 21:15:41;;;;;;;18.92;7.93;;;19.50;99.90;;;;;;25712419;23;20069;-44
2023/07/12 21:25:44;;;;;;;19.38;7.25;;;19.50;99.90;;;;;;25714611;23;20008;-44
2023/07/12 21:35:49;;;;;;;21.17;8.15;;;19.70;99.90;;;;;;25714467;23;20004;-49
2023/07/12 21:45:51;;;;;;;20.40;8.60;;;19.80;99.90;;;;;;25713466;23;20012;-44
2023/07/12 21:55:52;;;;;;;33.25;8.30;;;19.90;99.90;;;;;;25714078;23;20030;-44
